sensor_id;sensor_type;location;lat;lon;timestamp;temperature;humidity
26703;DHT22;14316;51.074;3.704;2023-07-13T00:01:26;15.90;99.90
26703;DHT22;14316;51.074;3.704;2023-07-13T00:03:52;15.90;99.90
26703;DHT22;14316;51.074;3.704;2023-07-13T00:06:18;15.80;99.90
26703;DHT22;14316;51.074;3.704;2023-07-13T00:08:45;15.80;99.90
26703;DHT22;14316;51.074;3.704;2023-07-13T00:11:13;15.80;99.90
26703;DHT22;14316;51.074;3.704;2023-07-13T00:13:38;15.80;99.90
26703;DHT22;14316;51.074;3.704;2023-07-13T00:16:05;15.80;99.90
26703;DHT22;14316;51.074;3.704;2023-07-13T00:18:31;15.80;99.90
26703;DHT22;14316;51.074;3.704;2023-07-13T00:20:57;15.70;99.90
26703;DHT22;14316;51.074;3.704;2023-07-13T00:23:34;15.70;99.90
26703;DHT22;14316;51.074;3.704;2023-07-13T00:26:04;15.70;99.90
26703;DHT22;14316;51.074;3.704;2023-07-13T00:28:32;15.70;99.90
26703;DHT22;14316;51.074;3.704;2023-07-13T00:30:58;15.70;99.90
26703;DHT22;14316;51.074;3.704;2023-07-13T00:33:25;15.60;99.90
26703;DHT22;14316;51.074;3.704;2023-07-13T00:35:53;15.60;99.90
26703;DHT22;14316;51.074;3.704;2023-07-13T00:38:19;15.60;99.90
26703;DHT22;14316;51.074;3.704;2023-07-13T00:40:44;15.60;99.90
26703;DHT22;14316;51.074;3.704;2023-07-13T00:43:16;15.60;99.90
26703;DHT22;14316;51.074;3.704;2023-07-13T00:48:17;15.50;99.90
26703;DHT22;14316;51.074;3.704;2023-07-13T00:50:48;15.50;99.90
26703;DHT22;14316;51.074;3.704;2023-07-13T00:53:15;15.50;99.90
26703;DHT22;14316;51.074;3.704;2023-07-13T00:55:41;15.50;99.90
26703;DHT22;14316;51.074;3.704;2023-07-13T00:58:07;15.60;99.90
26703;DHT22;14316;51.074;3.704;2023-07-13T01:00:38;15.60;99.90
26703;DHT22;14316;51.074;3.704;2023-07-13T01:03:04;15.50;99.90
26703;DHT22;14316;51.074;3.704;2023-07-13T01:05:32;15.60;99.90
26703;DHT22;14316;51.074;3.704;2023-07-13T01:07:59;15.60;99.90
26703;DHT22;14316;51.074;3.704;2023-07-13T01:10:26;15.50;99.90
26703;DHT22;14316;51.074;3.704;2023-07-13T01:12:53;15.60;99.90
26703;DHT22;14316;51.074;3.704;2023-07-13T01:15:43;15.60;99.90
26703;DHT22;14316;51.074;3.704;2023-07-13T01:18:15;15.50;99.90
26703;DHT22;14316;51.074;3.704;2023-07-13T01:20:51;15.50;99.90
26703;DHT22;14316;51.074;3.704;2023-07-13T01:23:17;15.50;99.90
26703;DHT22;14316;51.074;3.704;2023-07-13T01:25:44;15.50;99.90
26703;DHT22;14316;51.074;3.704;2023-07-13T01:28:10;15.50;99.90
26703;DHT22;14316;51.074;3.704;2023-07-13T01:30:37;15.70;99.90
26703;DHT22;14316;51.074;3.704;2023-07-13T01:33:06;15.50;99.90
26703;DHT22;14316;51.074;3.704;2023-07-13T01:35:33;15.50;99.90
26703;DHT22;14316;51.074;3.704;2023-07-13T01:37:59;15.50;99.90
26703;DHT22;14316;51.074;3.704;2023-07-13T01:40:26;15.50;99.90
26703;DHT22;14316;51.074;3.704;2023-07-13T01:42:52;15.50;99.90
26703;DHT22;14316;51.074;3.704;2023-07-13T01:45:18;15.50;99.90
26703;DHT22;14316;51.074;3.704;2023-07-13T01:47:44;15.50;99.90
26703;DHT22;14316;51.074;3.704;2023-07-13T01:50:10;15.40;99.90
26703;DHT22;14316;51.074;3.704;2023-07-13T01:52:35;15.40;99.90
26703;DHT22;14316;51.074;3.704;2023-07-13T01:55:01;15.40;99.90
26703;DHT22;14316;51.074;3.704;2023-07-13T01:57:28;15.40;99.90
26703;DHT22;14316;51.074;3.704;2023-07-13T01:59:54;15.30;99.90
26703;DHT22;14316;51.074;3.704;2023-07-13T02:02:19;15.30;99.90
26703;DHT22;14316;51.074;3.704;2023-07-13T02:04:45;15.30;99.90
26703;DHT22;14316;51.074;3.704;2023-07-13T02:07:11;15.30;99.90
26703;DHT22;14316;51.074;3.704;2023-07-13T02:09:37;15.40;99.90
26703;DHT22;14316;51.074;3.704;2023-07-13T02:12:03;15.50;99.90
26703;DHT22;14316;51.074;3.704;2023-07-13T02:14:28;15.50;99.90
26703;DHT22;14316;51.074;3.704;2023-07-13T02:16:54;15.50;99.90
26703;DHT22;14316;51.074;3.704;2023-07-13T02:19:20;15.50;99.90
26703;DHT22;14316;51.074;3.704;2023-07-13T02:21:46;15.50;99.90
26703;DHT22;14316;51.074;3.704;2023-07-13T02:24:12;15.50;99.90
26703;DHT22;14316;51.074;3.704;2023-07-13T02:26:46;15.50;99.90
26703;DHT22;14316;51.074;3.704;2023-07-13T02:29:12;15.50;99.90
26703;DHT22;14316;51.074;3.704;2023-07-13T02:31:38;15.50;99.90
26703;DHT22;14316;51.074;3.704;2023-07-13T02:34:04;15.40;99.90
26703;DHT22;14316;51.074;3.704;2023-07-13T02:36:30;15.40;99.90
26703;DHT22;14316;51.074;3.704;2023-07-13T02:38:57;15.40;99.90
26703;DHT22;14316;51.074;3.704;2023-07-13T02:41:23;15.40;99.90
26703;DHT22;14316;51.074;3.704;2023-07-13T02:43:48;15.40;99.90
26703;DHT22;14316;51.074;3.704;2023-07-13T02:46:14;15.40;99.90
26703;DHT22;14316;51.074;3.704;2023-07-13T02:48:40;15.40;99.90
26703;DHT22;14316;51.074;3.704;2023-07-13T02:51:07;15.40;99.90
26703;DHT22;14316;51.074;3.704;2023-07-13T02:53:33;15.40;99.90
26703;DHT22;14316;51.074;3.704;2023-07-13T02:55:59;15.30;99.90
26703;DHT22;14316;51.074;3.704;2023-07-13T02:58:25;15.30;99.90
26703;DHT22;14316;51.074;3.704;2023-07-13T03:00:51;15.30;99.90
26703;DHT22;14316;51.074;3.704;2023-07-13T03:03:17;15.40;99.90
26703;DHT22;14316;51.074;3.704;2023-07-13T03:05:44;15.40;99.90
26703;DHT22;14316;51.074;3.704;2023-07-13T03:08:11;15.30;99.90
26703;DHT22;14316;51.074;3.704;2023-07-13T03:10:37;15.30;99.90
26703;DHT22;14316;51.074;3.704;2023-07-13T03:13:05;15.30;99.90
26703;DHT22;14316;51.074;3.704;2023-07-13T03:15:31;15.30;99.90
26703;DHT22;14316;51.074;3.704;2023-07-13T03:17:56;15.30;99.90
26703;DHT22;14316;51.074;3.704;2023-07-13T03:20:22;15.30;99.90
26703;DHT22;14316;51.074;3.704;2023-07-13T03:22:48;15.30;99.90
26703;DHT22;14316;51.074;3.704;2023-07-13T03:25:14;15.30;99.90
26703;DHT22;14316;51.074;3.704;2023-07-13T03:27:40;15.40;99.90
26703;DHT22;14316;51.074;3.704;2023-07-13T03:30:06;15.40;99.90
26703;DHT22;14316;51.074;3.704;2023-07-13T03:32:32;15.40;99.90
26703;DHT22;14316;51.074;3.704;2023-07-13T03:34:58;15.50;99.90
26703;DHT22;14316;51.074;3.704;2023-07-13T03:37:24;15.50;99.90
26703;DHT22;14316;51.074;3.704;2023-07-13T03:39:50;15.50;99.90
26703;DHT22;14316;51.074;3.704;2023-07-13T03:42:16;15.60;99.90
26703;DHT22;14316;51.074;3.704;2023-07-13T03:44:42;15.50;99.90
26703;DHT22;14316;51.074;3.704;2023-07-13T03:47:12;15.50;99.90
26703;DHT22;14316;51.074;3.704;2023-07-13T03:49:37;15.40;99.90
26703;DHT22;14316;51.074;3.704;2023-07-13T03:52:03;15.40;99.90
26703;DHT22;14316;51.074;3.704;2023-07-13T03:54:29;15.30;99.90
26703;DHT22;14316;51.074;3.704;2023-07-13T03:56:55;15.30;99.90
26703;DHT22;14316;51.074;3.704;2023-07-13T03:59:21;15.30;99.90
26703;DHT22;14316;51.074;3.704;2023-07-13T04:01:47;15.40;99.90
26703;DHT22;14316;51.074;3.704;2023-07-13T04:04:12;15.40;99.90
26703;DHT22;14316;51.074;3.704;2023-07-13T04:06:38;15.50;99.90
26703;DHT22;14316;51.074;3.704;2023-07-13T04:09:04;15.50;99.90
26703;DHT22;14316;51.074;3.704;2023-07-13T04:11:34;15.60;99.90
26703;DHT22;14316;51.074;3.704;2023-07-13T04:14:02;15.60;99.90
26703;DHT22;14316;51.074;3.704;2023-07-13T04:16:28;15.60;99.90
26703;DHT22;14316;51.074;3.704;2023-07-13T04:18:55;15.60;99.90
26703;DHT22;14316;51.074;3.704;2023-07-13T04:21:25;15.70;99.90
26703;DHT22;14316;51.074;3.704;2023-07-13T04:23:52;15.70;99.90
26703;DHT22;14316;51.074;3.704;2023-07-13T04:26:18;15.80;99.90
26703;DHT22;14316;51.074;3.704;2023-07-13T04:28:47;15.80;99.90
26703;DHT22;14316;51.074;3.704;2023-07-13T04:31:14;15.90;99.90
26703;DHT22;14316;51.074;3.704;2023-07-13T04:33:40;15.90;99.90
26703;DHT22;14316;51.074;3.704;2023-07-13T04:36:06;15.90;99.90
26703;DHT22;14316;51.074;3.704;2023-07-13T04:38:33;16.00;99.90
26703;DHT22;14316;51.074;3.704;2023-07-13T04:41:00;15.90;99.90
26703;DHT22;14316;51.074;3.704;2023-07-13T04:43:27;15.90;99.90
26703;DHT22;14316;51.074;3.704;2023-07-13T04:45:53;15.80;99.90
26703;DHT22;14316;51.074;3.704;2023-07-13T04:48:20;15.90;99.90
26703;DHT22;14316;51.074;3.704;2023-07-13T04:50:46;15.90;99.90
26703;DHT22;14316;51.074;3.704;2023-07-13T04:53:12;15.90;99.90
26703;DHT22;14316;51.074;3.704;2023-07-13T04:55:38;16.00;99.90
26703;DHT22;14316;51.074;3.704;2023-07-13T04:58:04;16.10;99.90
26703;DHT22;14316;51.074;3.704;2023-07-13T05:00:31;16.10;99.90
26703;DHT22;14316;51.074;3.704;2023-07-13T05:02:57;16.20;99.90
26703;DHT22;14316;51.074;3.704;2023-07-13T05:05:25;16.20;99.90
26703;DHT22;14316;51.074;3.704;2023-07-13T05:07:52;16.30;99.90
26703;DHT22;14316;51.074;3.704;2023-07-13T05:10:18;16.30;99.90
26703;DHT22;14316;51.074;3.704;2023-07-13T05:12:43;16.30;99.90
26703;DHT22;14316;51.074;3.704;2023-07-13T05:15:10;16.40;99.90
26703;DHT22;14316;51.074;3.704;2023-07-13T05:17:35;16.50;99.90
26703;DHT22;14316;51.074;3.704;2023-07-13T05:20:01;16.50;99.90
26703;DHT22;14316;51.074;3.704;2023-07-13T05:22:27;16.50;99.90
26703;DHT22;14316;51.074;3.704;2023-07-13T05:24:53;16.50;99.90
26703;DHT22;14316;51.074;3.704;2023-07-13T05:27:19;16.50;99.90
26703;DHT22;14316;51.074;3.704;2023-07-13T05:29:44;16.40;99.90
26703;DHT22;14316;51.074;3.704;2023-07-13T05:32:10;16.50;99.90
26703;DHT22;14316;51.074;3.704;2023-07-13T05:34:36;16.50;99.90
26703;DHT22;14316;51.074;3.704;2023-07-13T05:37:02;16.50;99.90
26703;DHT22;14316;51.074;3.704;2023-07-13T05:39:27;16.60;99.90
26703;DHT22;14316;51.074;3.704;2023-07-13T05:41:53;16.60;99.90
26703;DHT22;14316;51.074;3.704;2023-07-13T05:44:19;16.80;99.90
26703;DHT22;14316;51.074;3.704;2023-07-13T05:46:45;16.80;99.90
26703;DHT22;14316;51.074;3.704;2023-07-13T05:49:11;16.80;99.90
26703;DHT22;14316;51.074;3.704;2023-07-13T05:51:37;16.80;99.90
26703;DHT22;14316;51.074;3.704;2023-07-13T05:54:03;17.00;99.90
26703;DHT22;14316;51.074;3.704;2023-07-13T05:56:29;17.00;99.90
26703;DHT22;14316;51.074;3.704;2023-07-13T05:58:54;17.10;99.90
26703;DHT22;14316;51.074;3.704;2023-07-13T06:01:20;17.00;99.90
26703;DHT22;14316;51.074;3.704;2023-07-13T06:03:47;17.00;99.90
26703;DHT22;14316;51.074;3.704;2023-07-13T06:06:13;17.00;99.90
26703;DHT22;14316;51.074;3.704;2023-07-13T06:08:39;17.00;99.90
26703;DHT22;14316;51.074;3.704;2023-07-13T06:11:13;17.00;99.90
26703;DHT22;14316;51.074;3.704;2023-07-13T06:13:40;17.10;99.90
26703;DHT22;14316;51.074;3.704;2023-07-13T06:16:06;17.30;99.90
26703;DHT22;14316;51.074;3.704;2023-07-13T06:18:33;17.30;99.90
26703;DHT22;14316;51.074;3.704;2023-07-13T06:20:59;17.30;99.90
26703;DHT22;14316;51.074;3.704;2023-07-13T06:23:25;17.30;99.90
26703;DHT22;14316;51.074;3.704;2023-07-13T06:25:51;17.50;99.90
26703;DHT22;14316;51.074;3.704;2023-07-13T06:28:17;17.50;99.90
26703;DHT22;14316;51.074;3.704;2023-07-13T06:30:43;17.60;99.90
26703;DHT22;14316;51.074;3.704;2023-07-13T06:33:08;17.50;99.90
26703;DHT22;14316;51.074;3.704;2023-07-13T06:35:34;17.50;99.90
26703;DHT22;14316;51.074;3.704;2023-07-13T06:38:01;17.60;99.90
26703;DHT22;14316;51.074;3.704;2023-07-13T06:40:27;17.60;99.90
26703;DHT22;14316;51.074;3.704;2023-07-13T06:42:54;17.70;99.90
26703;DHT22;14316;51.074;3.704;2023-07-13T06:45:20;17.80;99.90
26703;DHT22;14316;51.074;3.704;2023-07-13T06:47:45;17.90;99.90
26703;DHT22;14316;51.074;3.704;2023-07-13T06:50:11;17.90;99.90
26703;DHT22;14316;51.074;3.704;2023-07-13T06:52:37;17.90;99.90
26703;DHT22;14316;51.074;3.704;2023-07-13T06:55:03;18.00;99.90
26703;DHT22;14316;51.074;3.704;2023-07-13T06:57:29;18.00;99.90
26703;DHT22;14316;51.074;3.704;2023-07-13T06:59:54;18.00;99.90
26703;DHT22;14316;51.074;3.704;2023-07-13T07:02:20;18.10;99.90
26703;DHT22;14316;51.074;3.704;2023-07-13T07:04:46;18.10;99.90
26703;DHT22;14316;51.074;3.704;2023-07-13T07:07:12;18.00;99.90
26703;DHT22;14316;51.074;3.704;2023-07-13T07:09:37;18.10;99.90
26703;DHT22;14316;51.074;3.704;2023-07-13T07:12:03;18.30;99.90
26703;DHT22;14316;51.074;3.704;2023-07-13T07:14:29;18.20;99.90
26703;DHT22;14316;51.074;3.704;2023-07-13T07:16:55;18.00;99.90
26703;DHT22;14316;51.074;3.704;2023-07-13T07:19:21;18.10;99.90
26703;DHT22;14316;51.074;3.704;2023-07-13T07:21:46;18.00;99.90
26703;DHT22;14316;51.074;3.704;2023-07-13T07:24:12;18.20;99.90
26703;DHT22;14316;51.074;3.704;2023-07-13T07:26:38;18.50;99.90
26703;DHT22;14316;51.074;3.704;2023-07-13T07:29:04;18.60;99.90
26703;DHT22;14316;51.074;3.704;2023-07-13T07:31:29;18.80;99.90
26703;DHT22;14316;51.074;3.704;2023-07-13T07:33:55;18.90;99.90
26703;DHT22;14316;51.074;3.704;2023-07-13T07:36:21;18.90;99.90
26703;DHT22;14316;51.074;3.704;2023-07-13T07:38:47;19.10;99.90
26703;DHT22;14316;51.074;3.704;2023-07-13T07:41:12;19.10;99.90
26703;DHT22;14316;51.074;3.704;2023-07-13T07:43:38;19.00;99.90
26703;DHT22;14316;51.074;3.704;2023-07-13T07:46:04;19.20;99.90
26703;DHT22;14316;51.074;3.704;2023-07-13T07:48:30;19.30;99.90
26703;DHT22;14316;51.074;3.704;2023-07-13T07:50:56;19.40;99.90
26703;DHT22;14316;51.074;3.704;2023-07-13T07:53:22;19.40;99.90
26703;DHT22;14316;51.074;3.704;2023-07-13T07:55:48;19.40;99.90
26703;DHT22;14316;51.074;3.704;2023-07-13T07:58:14;19.30;99.90
26703;DHT22;14316;51.074;3.704;2023-07-13T08:00:40;19.50;99.90
26703;DHT22;14316;51.074;3.704;2023-07-13T08:03:06;19.70;99.90
26703;DHT22;14316;51.074;3.704;2023-07-13T08:05:32;19.70;99.90
26703;DHT22;14316;51.074;3.704;2023-07-13T08:08:00;19.70;99.90
26703;DHT22;14316;51.074;3.704;2023-07-13T08:10:26;19.70;99.90
26703;DHT22;14316;51.074;3.704;2023-07-13T08:12:51;19.50;99.90
26703;DHT22;14316;51.074;3.704;2023-07-13T08:15:18;19.50;99.90
26703;DHT22;14316;51.074;3.704;2023-07-13T08:17:49;19.50;99.90
26703;DHT22;14316;51.074;3.704;2023-07-13T08:20:15;19.60;99.90
26703;DHT22;14316;51.074;3.704;2023-07-13T08:22:41;19.70;99.90
26703;DHT22;14316;51.074;3.704;2023-07-13T08:25:07;19.70;99.90
26703;DHT22;14316;51.074;3.704;2023-07-13T08:27:33;19.70;99.90
26703;DHT22;14316;51.074;3.704;2023-07-13T08:29:59;19.70;99.90
26703;DHT22;14316;51.074;3.704;2023-07-13T08:32:25;19.90;99.90
26703;DHT22;14316;51.074;3.704;2023-07-13T08:34:51;19.90;99.90
26703;DHT22;14316;51.074;3.704;2023-07-13T08:37:17;19.90;99.90
26703;DHT22;14316;51.074;3.704;2023-07-13T08:39:44;19.90;99.90
26703;DHT22;14316;51.074;3.704;2023-07-13T08:42:14;19.80;99.90
26703;DHT22;14316;51.074;3.704;2023-07-13T08:47:21;19.90;99.90
26703;DHT22;14316;51.074;3.704;2023-07-13T08:49:48;19.90;99.90
26703;DHT22;14316;51.074;3.704;2023-07-13T08:52:34;20.00;99.90
26703;DHT22;14316;51.074;3.704;2023-07-13T08:55:15;20.40;99.90
26703;DHT22;14316;51.074;3.704;2023-07-13T08:57:42;20.70;99.90
26703;DHT22;14316;51.074;3.704;2023-07-13T09:00:11;20.70;99.90
26703;DHT22;14316;51.074;3.704;2023-07-13T09:03:12;20.40;99.90
26703;DHT22;14316;51.074;3.704;2023-07-13T09:05:42;20.40;99.90
26703;DHT22;14316;51.074;3.704;2023-07-13T09:08:26;20.50;99.90
26703;DHT22;14316;51.074;3.704;2023-07-13T09:14:00;20.40;99.90
26703;DHT22;14316;51.074;3.704;2023-07-13T09:16:29;20.70;99.90
26703;DHT22;14316;51.074;3.704;2023-07-13T09:19:01;20.90;99.90
26703;DHT22;14316;51.074;3.704;2023-07-13T09:21:29;21.00;99.90
26703;DHT22;14316;51.074;3.704;2023-07-13T09:23:59;21.30;99.90
26703;DHT22;14316;51.074;3.704;2023-07-13T09:26:29;21.30;99.90
26703;DHT22;14316;51.074;3.704;2023-07-13T09:29:26;21.40;99.90
26703;DHT22;14316;51.074;3.704;2023-07-13T09:31:55;21.10;99.90
26703;DHT22;14316;51.074;3.704;2023-07-13T09:34:23;21.20;99.90
26703;DHT22;14316;51.074;3.704;2023-07-13T09:36:50;21.50;99.90
26703;DHT22;14316;51.074;3.704;2023-07-13T09:39:28;21.50;99.90
26703;DHT22;14316;51.074;3.704;2023-07-13T09:42:07;21.60;99.90
26703;DHT22;14316;51.074;3.704;2023-07-13T09:44:49;21.40;99.90
26703;DHT22;14316;51.074;3.704;2023-07-13T09:47:18;21.60;99.90
26703;DHT22;14316;51.074;3.704;2023-07-13T09:49:45;22.00;99.90
26703;DHT22;14316;51.074;3.704;2023-07-13T09:52:12;22.30;99.90
26703;DHT22;14316;51.074;3.704;2023-07-13T09:54:41;22.40;99.90
26703;DHT22;14316;51.074;3.704;2023-07-13T09:57:17;22.50;99.90
26703;DHT22;14316;51.074;3.704;2023-07-13T09:59:45;22.80;99.90
26703;DHT22;14316;51.074;3.704;2023-07-13T10:02:34;22.80;99.90
26703;DHT22;14316;51.074;3.704;2023-07-13T10:07:29;22.70;99.90
26703;DHT22;14316;51.074;3.704;2023-07-13T10:10:00;22.80;99.90
26703;DHT22;14316;51.074;3.704;2023-07-13T10:12:27;22.30;99.90
26703;DHT22;14316;51.074;3.704;2023-07-13T10:14:58;22.40;99.90
26703;DHT22;14316;51.074;3.704;2023-07-13T10:17:32;22.10;99.90
26703;DHT22;14316;51.074;3.704;2023-07-13T10:20:03;22.40;99.90
26703;DHT22;14316;51.074;3.704;2023-07-13T10:25:01;22.70;99.90
26703;DHT22;14316;51.074;3.704;2023-07-13T10:27:34;22.80;99.90
26703;DHT22;14316;51.074;3.704;2023-07-13T10:32:38;22.30;99.90
26703;DHT22;14316;51.074;3.704;2023-07-13T10:35:05;21.80;99.90
26703;DHT22;14316;51.074;3.704;2023-07-13T10:37:48;21.70;99.90
26703;DHT22;14316;51.074;3.704;2023-07-13T10:40:21;21.50;99.90
26703;DHT22;14316;51.074;3.704;2023-07-13T10:42:50;21.50;99.90
26703;DHT22;14316;51.074;3.704;2023-07-13T10:45:20;21.40;99.90
26703;DHT22;14316;51.074;3.704;2023-07-13T10:47:47;21.40;99.90
26703;DHT22;14316;51.074;3.704;2023-07-13T10:50:20;20.70;99.90
26703;DHT22;14316;51.074;3.704;2023-07-13T10:52:52;19.80;99.90
26703;DHT22;14316;51.074;3.704;2023-07-13T10:55:37;18.90;99.90
26703;DHT22;14316;51.074;3.704;2023-07-13T10:58:14;18.10;99.90
26703;DHT22;14316;51.074;3.704;2023-07-13T11:03:20;17.40;99.90
26703;DHT22;14316;51.074;3.704;2023-07-13T11:05:51;17.20;99.90
26703;DHT22;14316;51.074;3.704;2023-07-13T11:10:56;17.10;99.90
26703;DHT22;14316;51.074;3.704;2023-07-13T11:18:45;17.40;99.90
26703;DHT22;14316;51.074;3.704;2023-07-13T11:21:17;17.50;99.90
26703;DHT22;14316;51.074;3.704;2023-07-13T11:23:45;17.60;99.90
26703;DHT22;14316;51.074;3.704;2023-07-13T11:26:42;17.70;99.90
26703;DHT22;14316;51.074;3.704;2023-07-13T11:31:51;18.30;99.90
26703;DHT22;14316;51.074;3.704;2023-07-13T11:36:47;18.90;99.90
26703;DHT22;14316;51.074;3.704;2023-07-13T11:39:19;19.40;99.90
26703;DHT22;14316;51.074;3.704;2023-07-13T11:41:53;20.00;99.90
26703;DHT22;14316;51.074;3.704;2023-07-13T11:44:23;20.70;99.90
26703;DHT22;14316;51.074;3.704;2023-07-13T11:46:54;21.20;99.90
26703;DHT22;14316;51.074;3.704;2023-07-13T11:49:22;21.90;99.90
26703;DHT22;14316;51.074;3.704;2023-07-13T11:51:48;22.40;99.90
26703;DHT22;14316;51.074;3.704;2023-07-13T11:54:41;23.30;99.90
26703;DHT22;14316;51.074;3.704;2023-07-13T11:59:54;25.00;99.90
26703;DHT22;14316;51.074;3.704;2023-07-13T12:02:41;25.60;99.90
26703;DHT22;14316;51.074;3.704;2023-07-13T12:05:11;25.40;99.90
26703;DHT22;14316;51.074;3.704;2023-07-13T12:07:38;24.30;99.90
26703;DHT22;14316;51.074;3.704;2023-07-13T12:10:22;23.90;99.90
26703;DHT22;14316;51.074;3.704;2023-07-13T12:12:58;23.60;99.90
26703;DHT22;14316;51.074;3.704;2023-07-13T12:18:02;23.30;99.90
26703;DHT22;14316;51.074;3.704;2023-07-13T12:20:35;23.50;99.90
26703;DHT22;14316;51.074;3.704;2023-07-13T12:23:05;24.00;99.90
26703;DHT22;14316;51.074;3.704;2023-07-13T12:25:31;24.70;99.90
26703;DHT22;14316;51.074;3.704;2023-07-13T12:27:57;25.80;99.90
26703;DHT22;14316;51.074;3.704;2023-07-13T12:30:31;27.20;99.90
26703;DHT22;14316;51.074;3.704;2023-07-13T12:33:10;27.90;99.90
26703;DHT22;14316;51.074;3.704;2023-07-13T12:35:51;29.60;99.90
26703;DHT22;14316;51.074;3.704;2023-07-13T12:38:18;30.80;99.90
26703;DHT22;14316;51.074;3.704;2023-07-13T12:40:49;31.60;99.90
26703;DHT22;14316;51.074;3.704;2023-07-13T12:43:16;31.50;99.90
26703;DHT22;14316;51.074;3.704;2023-07-13T12:46:18;31.10;99.90
26703;DHT22;14316;51.074;3.704;2023-07-13T12:48:49;29.20;99.90
26703;DHT22;14316;51.074;3.704;2023-07-13T12:51:16;28.20;99.90
26703;DHT22;14316;51.074;3.704;2023-07-13T12:53:48;27.80;99.90
26703;DHT22;14316;51.074;3.704;2023-07-13T12:56:20;27.90;99.90
26703;DHT22;14316;51.074;3.704;2023-07-13T12:58:47;29.30;99.90
26703;DHT22;14316;51.074;3.704;2023-07-13T13:01:21;29.40;99.90
26703;DHT22;14316;51.074;3.704;2023-07-13T13:03:50;28.70;99.90
26703;DHT22;14316;51.074;3.704;2023-07-13T13:06:26;27.60;99.90
26703;DHT22;14316;51.074;3.704;2023-07-13T13:08:56;27.20;99.90
26703;DHT22;14316;51.074;3.704;2023-07-13T13:11:25;29.00;99.90
26703;DHT22;14316;51.074;3.704;2023-07-13T13:13:52;30.90;99.90
26703;DHT22;14316;51.074;3.704;2023-07-13T13:18:53;29.30;98.30
26703;DHT22;14316;51.074;3.704;2023-07-13T13:21:23;27.30;99.90
26703;DHT22;14316;51.074;3.704;2023-07-13T13:23:50;26.50;99.90
26703;DHT22;14316;51.074;3.704;2023-07-13T13:26:18;26.10;99.90
26703;DHT22;14316;51.074;3.704;2023-07-13T13:28:44;26.60;99.90
26703;DHT22;14316;51.074;3.704;2023-07-13T13:31:11;28.00;99.90
26703;DHT22;14316;51.074;3.704;2023-07-13T13:33:44;29.40;99.90
26703;DHT22;14316;51.074;3.704;2023-07-13T13:36:17;31.10;98.50
26703;DHT22;14316;51.074;3.704;2023-07-13T13:38:43;32.30;95.30
26703;DHT22;14316;51.074;3.704;2023-07-13T13:41:11;32.20;92.60
26703;DHT22;14316;51.074;3.704;2023-07-13T13:43:49;31.30;92.10
26703;DHT22;14316;51.074;3.704;2023-07-13T13:46:18;30.80;91.30
26703;DHT22;14316;51.074;3.704;2023-07-13T13:48:44;31.10;91.80
26703;DHT22;14316;51.074;3.704;2023-07-13T13:51:15;30.80;92.40
26703;DHT22;14316;51.074;3.704;2023-07-13T13:53:41;30.30;90.60
26703;DHT22;14316;51.074;3.704;2023-07-13T13:56:08;31.00;90.30
26703;DHT22;14316;51.074;3.704;2023-07-13T13:58:34;31.80;88.80
26703;DHT22;14316;51.074;3.704;2023-07-13T14:01:00;31.20;84.40
26703;DHT22;14316;51.074;3.704;2023-07-13T14:03:26;31.80;84.30
26703;DHT22;14316;51.074;3.704;2023-07-13T14:05:54;32.30;80.70
26703;DHT22;14316;51.074;3.704;2023-07-13T14:08:21;32.40;80.30
26703;DHT22;14316;51.074;3.704;2023-07-13T14:10:50;32.20;81.20
26703;DHT22;14316;51.074;3.704;2023-07-13T14:13:21;31.90;81.70
26703;DHT22;14316;51.074;3.704;2023-07-13T14:15:48;32.00;80.90
26703;DHT22;14316;51.074;3.704;2023-07-13T14:18:14;33.10;79.90
26703;DHT22;14316;51.074;3.704;2023-07-13T14:20:44;33.70;77.20
26703;DHT22;14316;51.074;3.704;2023-07-13T14:23:13;32.70;76.50
26703;DHT22;14316;51.074;3.704;2023-07-13T14:25:39;30.40;79.20
26703;DHT22;14316;51.074;3.704;2023-07-13T14:28:22;30.20;81.10
26703;DHT22;14316;51.074;3.704;2023-07-13T14:30:49;30.90;80.20
26703;DHT22;14316;51.074;3.704;2023-07-13T14:33:15;31.80;76.20
26703;DHT22;14316;51.074;3.704;2023-07-13T14:35:41;30.90;76.00
26703;DHT22;14316;51.074;3.704;2023-07-13T14:38:18;32.00;77.70
26703;DHT22;14316;51.074;3.704;2023-07-13T14:40:45;33.50;75.40
26703;DHT22;14316;51.074;3.704;2023-07-13T14:43:16;33.20;71.50
26703;DHT22;14316;51.074;3.704;2023-07-13T14:45:46;32.80;74.50
26703;DHT22;14316;51.074;3.704;2023-07-13T14:48:21;31.70;73.90
26703;DHT22;14316;51.074;3.704;2023-07-13T14:50:55;30.40;75.30
26703;DHT22;14316;51.074;3.704;2023-07-13T14:53:21;29.90;76.20
26703;DHT22;14316;51.074;3.704;2023-07-13T14:55:47;29.00;76.80
26703;DHT22;14316;51.074;3.704;2023-07-13T14:58:13;28.90;78.60
26703;DHT22;14316;51.074;3.704;2023-07-13T15:00:39;29.40;78.10
26703;DHT22;14316;51.074;3.704;2023-07-13T15:03:21;28.30;78.80
26703;DHT22;14316;51.074;3.704;2023-07-13T15:05:48;27.20;82.70
26703;DHT22;14316;51.074;3.704;2023-07-13T15:08:15;26.00;85.90
26703;DHT22;14316;51.074;3.704;2023-07-13T15:10:41;25.40;87.40
26703;DHT22;14316;51.074;3.704;2023-07-13T15:13:18;25.10;91.30
26703;DHT22;14316;51.074;3.704;2023-07-13T15:15:49;24.90;91.00
26703;DHT22;14316;51.074;3.704;2023-07-13T15:18:18;25.00;92.20
26703;DHT22;14316;51.074;3.704;2023-07-13T15:20:45;25.00;91.70
26703;DHT22;14316;51.074;3.704;2023-07-13T15:23:13;25.90;91.60
26703;DHT22;14316;51.074;3.704;2023-07-13T15:25:40;28.10;86.60
26703;DHT22;14316;51.074;3.704;2023-07-13T15:28:06;29.20;82.20
26703;DHT22;14316;51.074;3.704;2023-07-13T15:30:40;29.40;82.10
26703;DHT22;14316;51.074;3.704;2023-07-13T15:33:27;30.20;81.60
26703;DHT22;14316;51.074;3.704;2023-07-13T15:35:53;31.70;77.20
26703;DHT22;14316;51.074;3.704;2023-07-13T15:38:24;32.40;75.70
26703;DHT22;14316;51.074;3.704;2023-07-13T15:40:51;32.00;72.70
26703;DHT22;14316;51.074;3.704;2023-07-13T15:43:18;31.70;72.70
26703;DHT22;14316;51.074;3.704;2023-07-13T15:45:45;32.60;71.50
26703;DHT22;14316;51.074;3.704;2023-07-13T15:48:20;33.80;71.20
26703;DHT22;14316;51.074;3.704;2023-07-13T15:50:54;35.40;69.00
26703;DHT22;14316;51.074;3.704;2023-07-13T15:53:28;36.80;63.10
26703;DHT22;14316;51.074;3.704;2023-07-13T15:55:55;35.90;61.60
26703;DHT22;14316;51.074;3.704;2023-07-13T15:58:21;35.40;62.60
26703;DHT22;14316;51.074;3.704;2023-07-13T16:00:47;35.30;63.00
26703;DHT22;14316;51.074;3.704;2023-07-13T16:03:15;34.60;61.70
26703;DHT22;14316;51.074;3.704;2023-07-13T16:05:42;32.20;63.00
26703;DHT22;14316;51.074;3.704;2023-07-13T16:08:25;30.60;66.20
26703;DHT22;14316;51.074;3.704;2023-07-13T16:10:51;29.10;67.60
26703;DHT22;14316;51.074;3.704;2023-07-13T16:13:19;27.50;70.70
26703;DHT22;14316;51.074;3.704;2023-07-13T16:15:47;27.00;72.70
26703;DHT22;14316;51.074;3.704;2023-07-13T16:18:14;28.20;73.00